sensor_id;sensor_type;location;lat;lon;timestamp;P1;durP1;ratioP1;P2;durP2;ratioP2
4698;SDS011;33708;49.466;11.176;2023-02-28T00:02:20;9.57;;;3.30;;
4698;SDS011;33708;49.466;11.176;2023-02-28T00:04:45;10.00;;;3.20;;
4698;SDS011;33708;49.466;11.176;2023-02-28T00:07:17;9.90;;;3.10;;
4698;SDS011;33708;49.466;11.176;2023-02-28T00:09:44;14.03;;;3.93;;
4698;SDS011;33708;49.466;11.176;2023-02-28T00:12:10;14.60;;;3.53;;
4698;SDS011;33708;49.466;11.176;2023-02-28T00:14:39;10.47;;;3.47;;
4698;SDS011;33708;49.466;11.176;2023-02-28T00:17:04;10.20;;;3.40;;
4698;SDS011;33708;49.466;11.176;2023-02-28T00:19:30;8.80;;;3.10;;
4698;SDS011;33708;49.466;11.176;2023-02-28T00:21:55;10.80;;;3.20;;
4698;SDS011;33708;49.466;11.176;2023-02-28T00:24:21;9.93;;;3.13;;
4698;SDS011;33708;49.466;11.176;2023-02-28T00:26:46;10.53;;;3.40;;
4698;SDS011;33708;49.466;11.176;2023-02-28T00:29:12;13.20;;;3.23;;
4698;SDS011;33708;49.466;11.176;2023-02-28T00:31:38;15.63;;;4.83;;
4698;SDS011;33708;49.466;11.176;2023-02-28T00:34:03;12.87;;;3.67;;
4698;SDS011;33708;49.466;11.176;2023-02-28T00:36:29;16.93;;;4.77;;
4698;SDS011;33708;49.466;11.176;2023-02-28T00:38:54;13.97;;;3.93;;
4698;SDS011;33708;49.466;11.176;2023-02-28T00:41:20;9.70;;;3.63;;
4698;SDS011;33708;49.466;11.176;2023-02-28T00:43:45;9.97;;;3.20;;
4698;SDS011;33708;49.466;11.176;2023-02-28T00:46:11;8.67;;;3.00;;
4698;SDS011;33708;49.466;11.176;2023-02-28T00:48:37;10.20;;;3.50;;
4698;SDS011;33708;49.466;11.176;2023-02-28T00:51:02;18.17;;;3.70;;
4698;SDS011;33708;49.466;11.176;2023-02-28T00:53:28;20.37;;;6.23;;
4698;SDS011;33708;49.466;11.176;2023-02-28T00:55:54;12.67;;;4.40;;
4698;SDS011;33708;49.466;11.176;2023-02-28T00:58:20;14.00;;;4.87;;
4698;SDS011;33708;49.466;11.176;2023-02-28T01:00:46;10.57;;;4.03;;
4698;SDS011;33708;49.466;11.176;2023-02-28T01:03:16;12.30;;;3.97;;
4698;SDS011;33708;49.466;11.176;2023-02-28T01:05:42;11.03;;;3.40;;
4698;SDS011;33708;49.466;11.176;2023-02-28T01:08:08;13.40;;;4.47;;
4698;SDS011;33708;49.466;11.176;2023-02-28T01:10:34;13.23;;;4.00;;
4698;SDS011;33708;49.466;11.176;2023-02-28T01:13:01;13.70;;;4.00;;
4698;SDS011;33708;49.466;11.176;2023-02-28T01:15:28;16.13;;;4.33;;
4698;SDS011;33708;49.466;11.176;2023-02-28T01:17:53;11.87;;;3.60;;
4698;SDS011;33708;49.466;11.176;2023-02-28T01:20:19;11.73;;;3.83;;
4698;SDS011;33708;49.466;11.176;2023-02-28T01:22:45;10.43;;;3.97;;
4698;SDS011;33708;49.466;11.176;2023-02-28T01:25:11;16.40;;;4.37;;
4698;SDS011;33708;49.466;11.176;2023-02-28T01:27:37;11.87;;;3.83;;
4698;SDS011;33708;49.466;11.176;2023-02-28T01:30:05;10.27;;;3.83;;
4698;SDS011;33708;49.466;11.176;2023-02-28T01:32:34;12.17;;;4.33;;
4698;SDS011;33708;49.466;11.176;2023-02-28T01:35:03;9.20;;;3.63;;
4698;SDS011;33708;49.466;11.176;2023-02-28T01:37:35;9.93;;;3.73;;
4698;SDS011;33708;49.466;11.176;2023-02-28T01:40:04;11.43;;;3.67;;
4698;SDS011;33708;49.466;11.176;2023-02-28T01:42:33;10.70;;;4.07;;
4698;SDS011;33708;49.466;11.176;2023-02-28T01:47:51;11.70;;;3.97;;
4698;SDS011;33708;49.466;11.176;2023-02-28T01:50:23;16.00;;;3.93;;
4698;SDS011;33708;49.466;11.176;2023-02-28T01:52:51;12.37;;;4.10;;
4698;SDS011;33708;49.466;11.176;2023-02-28T01:55:23;12.70;;;4.57;;
4698;SDS011;33708;49.466;11.176;2023-02-28T01:57:58;11.97;;;4.10;;
4698;SDS011;33708;49.466;11.176;2023-02-28T02:00:27;9.77;;;4.23;;
4698;SDS011;33708;49.466;11.176;2023-02-28T02:02:58;12.33;;;4.30;;
4698;SDS011;33708;49.466;11.176;2023-02-28T02:05:29;12.13;;;3.97;;
4698;SDS011;33708;49.466;11.176;2023-02-28T02:07:57;11.47;;;3.60;;
4698;SDS011;33708;49.466;11.176;2023-02-28T02:10:30;11.83;;;3.70;;
4698;SDS011;33708;49.466;11.176;2023-02-28T02:18:09;12.50;;;3.87;;
4698;SDS011;33708;49.466;11.176;2023-02-28T02:21:02;13.20;;;4.40;;
4698;SDS011;33708;49.466;11.176;2023-02-28T02:34:58;13.10;;;4.53;;
4698;SDS011;33708;49.466;11.176;2023-02-28T02:37:43;10.23;;;4.37;;
4698;SDS011;33708;49.466;11.176;2023-02-28T02:40:19;10.23;;;3.80;;
4698;SDS011;33708;49.466;11.176;2023-02-28T02:42:51;17.80;;;4.80;;
4698;SDS011;33708;49.466;11.176;2023-02-28T02:48:12;12.70;;;4.87;;
4698;SDS011;33708;49.466;11.176;2023-02-28T02:50:49;12.90;;;4.70;;
4698;SDS011;33708;49.466;11.176;2023-02-28T02:53:22;12.00;;;4.77;;
4698;SDS011;33708;49.466;11.176;2023-02-28T02:55:52;12.03;;;4.63;;
4698;SDS011;33708;49.466;11.176;2023-02-28T02:58:22;11.90;;;4.30;;
4698;SDS011;33708;49.466;11.176;2023-02-28T03:00:55;12.47;;;4.23;;
4698;SDS011;33708;49.466;11.176;2023-02-28T03:03:25;13.30;;;4.87;;
4698;SDS011;33708;49.466;11.176;2023-02-28T03:05:55;13.80;;;5.37;;
4698;SDS011;33708;49.466;11.176;2023-02-28T03:08:22;11.23;;;4.90;;
4698;SDS011;33708;49.466;11.176;2023-02-28T03:10:51;12.97;;;4.60;;
4698;SDS011;33708;49.466;11.176;2023-02-28T03:16:05;14.80;;;5.17;;
4698;SDS011;33708;49.466;11.176;2023-02-28T03:24:06;13.43;;;5.13;;
4698;SDS011;33708;49.466;11.176;2023-02-28T03:26:39;12.63;;;5.27;;
4698;SDS011;33708;49.466;11.176;2023-02-28T03:32:16;15.73;;;5.50;;
4698;SDS011;33708;49.466;11.176;2023-02-28T03:34:52;13.10;;;5.00;;
4698;SDS011;33708;49.466;11.176;2023-02-28T03:37:25;15.80;;;5.37;;
4698;SDS011;33708;49.466;11.176;2023-02-28T03:39:56;14.63;;;5.90;;
4698;SDS011;33708;49.466;11.176;2023-02-28T03:42:29;14.30;;;5.37;;
4698;SDS011;33708;49.466;11.176;2023-02-28T03:45:04;13.03;;;5.17;;
4698;SDS011;33708;49.466;11.176;2023-02-28T03:47:37;11.63;;;5.33;;
4698;SDS011;33708;49.466;11.176;2023-02-28T03:50:10;14.90;;;5.50;;
4698;SDS011;33708;49.466;11.176;2023-02-28T03:53:06;14.30;;;5.53;;
4698;SDS011;33708;49.466;11.176;2023-02-28T03:55:41;18.43;;;6.23;;
4698;SDS011;33708;49.466;11.176;2023-02-28T03:58:22;14.13;;;6.07;;
4698;SDS011;33708;49.466;11.176;2023-02-28T04:00:59;12.77;;;5.30;;
4698;SDS011;33708;49.466;11.176;2023-02-28T04:03:33;11.90;;;5.20;;
4698;SDS011;33708;49.466;11.176;2023-02-28T04:06:00;13.60;;;5.47;;
4698;SDS011;33708;49.466;11.176;2023-02-28T04:08:26;12.83;;;5.60;;
4698;SDS011;33708;49.466;11.176;2023-02-28T04:11:03;12.77;;;5.40;;
4698;SDS011;33708;49.466;11.176;2023-02-28T04:13:37;15.33;;;5.87;;
4698;SDS011;33708;49.466;11.176;2023-02-28T04:16:06;14.10;;;5.50;;
4698;SDS011;33708;49.466;11.176;2023-02-28T04:18:37;13.67;;;5.60;;
4698;SDS011;33708;49.466;11.176;2023-02-28T04:21:03;15.83;;;5.50;;
4698;SDS011;33708;49.466;11.176;2023-02-28T04:23:29;13.60;;;5.50;;
4698;SDS011;33708;49.466;11.176;2023-02-28T04:25:55;12.77;;;5.47;;
4698;SDS011;33708;49.466;11.176;2023-02-28T04:28:21;13.60;;;5.43;;
4698;SDS011;33708;49.466;11.176;2023-02-28T04:30:47;14.43;;;6.37;;
4698;SDS011;33708;49.466;11.176;2023-02-28T04:33:12;10.10;;;4.77;;
4698;SDS011;33708;49.466;11.176;2023-02-28T04:35:38;12.93;;;5.37;;
4698;SDS011;33708;49.466;11.176;2023-02-28T04:38:03;14.57;;;5.93;;
4698;SDS011;33708;49.466;11.176;2023-02-28T04:40:29;13.20;;;5.50;;
4698;SDS011;33708;49.466;11.176;2023-02-28T04:42:55;13.67;;;6.03;;
4698;SDS011;33708;49.466;11.176;2023-02-28T04:45:20;16.97;;;6.33;;
4698;SDS011;33708;49.466;11.176;2023-02-28T04:47:46;13.03;;;5.37;;
4698;SDS011;33708;49.466;11.176;2023-02-28T04:50:11;14.50;;;5.97;;
4698;SDS011;33708;49.466;11.176;2023-02-28T04:52:37;20.70;;;6.53;;
4698;SDS011;33708;49.466;11.176;2023-02-28T04:55:03;15.83;;;6.17;;
4698;SDS011;33708;49.466;11.176;2023-02-28T04:57:29;13.53;;;6.03;;
4698;SDS011;33708;49.466;11.176;2023-02-28T04:59:55;14.70;;;6.20;;
4698;SDS011;33708;49.466;11.176;2023-02-28T05:02:20;14.63;;;6.07;;
4698;SDS011;33708;49.466;11.176;2023-02-28T05:04:46;12.90;;;5.90;;
4698;SDS011;33708;49.466;11.176;2023-02-28T05:07:11;11.77;;;5.90;;
4698;SDS011;33708;49.466;11.176;2023-02-28T05:09:37;13.40;;;5.53;;
4698;SDS011;33708;49.466;11.176;2023-02-28T05:12:02;15.67;;;6.60;;
4698;SDS011;33708;49.466;11.176;2023-02-28T05:14:28;15.43;;;6.73;;
4698;SDS011;33708;49.466;11.176;2023-02-28T05:16:54;14.47;;;6.33;;
4698;SDS011;33708;49.466;11.176;2023-02-28T05:19:19;13.23;;;5.83;;
4698;SDS011;33708;49.466;11.176;2023-02-28T05:21:50;14.80;;;6.37;;
4698;SDS011;33708;49.466;11.176;2023-02-28T05:24:18;16.07;;;6.53;;
4698;SDS011;33708;49.466;11.176;2023-02-28T05:26:50;15.97;;;6.03;;
4698;SDS011;33708;49.466;11.176;2023-02-28T05:29:18;14.33;;;6.23;;
4698;SDS011;33708;49.466;11.176;2023-02-28T05:31:44;14.10;;;5.63;;
4698;SDS011;33708;49.466;11.176;2023-02-28T05:34:09;12.20;;;5.70;;
4698;SDS011;33708;49.466;11.176;2023-02-28T05:36:37;13.80;;;5.90;;
4698;SDS011;33708;49.466;11.176;2023-02-28T05:39:05;15.53;;;6.13;;
4698;SDS011;33708;49.466;11.176;2023-02-28T05:41:32;13.10;;;5.60;;
4698;SDS011;33708;49.466;11.176;2023-02-28T05:43:58;15.70;;;6.57;;
4698;SDS011;33708;49.466;11.176;2023-02-28T05:46:24;14.10;;;5.17;;
4698;SDS011;33708;49.466;11.176;2023-02-28T05:48:50;13.20;;;5.63;;
4698;SDS011;33708;49.466;11.176;2023-02-28T05:51:16;17.93;;;5.70;;
4698;SDS011;33708;49.466;11.176;2023-02-28T05:53:42;14.13;;;5.50;;
4698;SDS011;33708;49.466;11.176;2023-02-28T05:56:08;16.77;;;7.07;;
4698;SDS011;33708;49.466;11.176;2023-02-28T05:58:33;16.47;;;6.60;;
4698;SDS011;33708;49.466;11.176;2023-02-28T06:00:59;16.03;;;6.63;;
4698;SDS011;33708;49.466;11.176;2023-02-28T06:03:43;12.53;;;5.53;;
4698;SDS011;33708;49.466;11.176;2023-02-28T06:06:09;13.67;;;5.47;;
4698;SDS011;33708;49.466;11.176;2023-02-28T06:08:34;18.47;;;6.47;;
4698;SDS011;33708;49.466;11.176;2023-02-28T06:11:02;16.50;;;6.27;;
4698;SDS011;33708;49.466;11.176;2023-02-28T06:13:28;13.70;;;5.83;;
4698;SDS011;33708;49.466;11.176;2023-02-28T06:15:54;14.87;;;7.10;;
4698;SDS011;33708;49.466;11.176;2023-02-28T06:18:19;13.80;;;6.40;;
4698;SDS011;33708;49.466;11.176;2023-02-28T06:20:51;22.70;;;6.97;;
4698;SDS011;33708;49.466;11.176;2023-02-28T06:23:19;17.33;;;7.83;;
4698;SDS011;33708;49.466;11.176;2023-02-28T06:25:45;15.73;;;6.20;;
4698;SDS011;33708;49.466;11.176;2023-02-28T06:28:11;16.33;;;7.60;;
4698;SDS011;33708;49.466;11.176;2023-02-28T06:30:37;20.43;;;8.17;;
4698;SDS011;33708;49.466;11.176;2023-02-28T06:33:03;16.13;;;7.07;;
4698;SDS011;33708;49.466;11.176;2023-02-28T06:35:31;16.33;;;7.17;;
4698;SDS011;33708;49.466;11.176;2023-02-28T06:37:57;14.73;;;6.83;;
4698;SDS011;33708;49.466;11.176;2023-02-28T06:40:22;18.17;;;7.80;;
4698;SDS011;33708;49.466;11.176;2023-02-28T06:42:51;15.53;;;7.17;;
4698;SDS011;33708;49.466;11.176;2023-02-28T06:45:17;18.37;;;8.10;;
4698;SDS011;33708;49.466;11.176;2023-02-28T06:47:42;26.73;;;9.00;;
4698;SDS011;33708;49.466;11.176;2023-02-28T06:50:09;17.70;;;9.23;;
4698;SDS011;33708;49.466;11.176;2023-02-28T06:52:36;19.03;;;8.93;;
4698;SDS011;33708;49.466;11.176;2023-02-28T06:55:06;15.70;;;8.37;;
4698;SDS011;33708;49.466;11.176;2023-02-28T06:57:36;21.00;;;9.23;;
4698;SDS011;33708;49.466;11.176;2023-02-28T07:00:04;23.50;;;8.93;;
4698;SDS011;33708;49.466;11.176;2023-02-28T07:02:32;16.87;;;7.90;;
4698;SDS011;33708;49.466;11.176;2023-02-28T07:04:58;18.47;;;8.93;;
4698;SDS011;33708;49.466;11.176;2023-02-28T07:07:24;24.63;;;8.90;;
4698;SDS011;33708;49.466;11.176;2023-02-28T07:09:49;19.50;;;9.10;;
4698;SDS011;33708;49.466;11.176;2023-02-28T07:12:16;18.40;;;8.53;;
4698;SDS011;33708;49.466;11.176;2023-02-28T07:14:56;21.47;;;9.00;;
4698;SDS011;33708;49.466;11.176;2023-02-28T07:17:24;17.23;;;8.60;;
4698;SDS011;33708;49.466;11.176;2023-02-28T07:19:50;20.13;;;9.73;;
4698;SDS011;33708;49.466;11.176;2023-02-28T07:22:15;21.47;;;9.10;;
4698;SDS011;33708;49.466;11.176;2023-02-28T07:24:41;18.37;;;8.80;;
4698;SDS011;33708;49.466;11.176;2023-02-28T07:27:07;16.37;;;8.43;;
4698;SDS011;33708;49.466;11.176;2023-02-28T07:29:32;17.70;;;8.60;;
4698;SDS011;33708;49.466;11.176;2023-02-28T07:31:58;20.10;;;9.80;;
4698;SDS011;33708;49.466;11.176;2023-02-28T07:34:24;19.70;;;9.17;;
4698;SDS011;33708;49.466;11.176;2023-02-28T07:36:52;19.73;;;8.63;;
4698;SDS011;33708;49.466;11.176;2023-02-28T07:39:19;16.90;;;8.50;;
4698;SDS011;33708;49.466;11.176;2023-02-28T07:41:45;19.97;;;9.33;;
4698;SDS011;33708;49.466;11.176;2023-02-28T07:44:11;20.70;;;8.33;;
4698;SDS011;33708;49.466;11.176;2023-02-28T07:46:37;24.10;;;8.90;;
4698;SDS011;33708;49.466;11.176;2023-02-28T07:49:03;19.83;;;9.23;;
4698;SDS011;33708;49.466;11.176;2023-02-28T07:51:48;16.50;;;8.60;;
4698;SDS011;33708;49.466;11.176;2023-02-28T07:54:14;19.97;;;10.93;;
4698;SDS011;33708;49.466;11.176;2023-02-28T07:56:42;17.80;;;9.07;;
4698;SDS011;33708;49.466;11.176;2023-02-28T07:59:08;18.20;;;9.40;;
4698;SDS011;33708;49.466;11.176;2023-02-28T08:01:34;17.13;;;8.73;;
4698;SDS011;33708;49.466;11.176;2023-02-28T08:04:00;17.90;;;9.83;;
4698;SDS011;33708;49.466;11.176;2023-02-28T08:06:25;17.67;;;10.00;;
4698;SDS011;33708;49.466;11.176;2023-02-28T08:08:52;15.40;;;7.90;;
4698;SDS011;33708;49.466;11.176;2023-02-28T08:11:18;19.70;;;9.40;;
4698;SDS011;33708;49.466;11.176;2023-02-28T08:13:44;19.90;;;9.33;;
4698;SDS011;33708;49.466;11.176;2023-02-28T08:16:13;17.20;;;9.07;;
4698;SDS011;33708;49.466;11.176;2023-02-28T08:18:42;17.30;;;9.40;;
4698;SDS011;33708;49.466;11.176;2023-02-28T08:21:09;18.00;;;9.70;;
4698;SDS011;33708;49.466;11.176;2023-02-28T08:23:37;21.20;;;9.50;;
4698;SDS011;33708;49.466;11.176;2023-02-28T08:26:03;19.23;;;9.80;;
4698;SDS011;33708;49.466;11.176;2023-02-28T08:28:29;20.10;;;9.77;;
4698;SDS011;33708;49.466;11.176;2023-02-28T08:30:55;18.50;;;9.70;;
4698;SDS011;33708;49.466;11.176;2023-02-28T08:33:21;20.60;;;9.70;;
4698;SDS011;33708;49.466;11.176;2023-02-28T08:35:47;20.73;;;9.13;;
4698;SDS011;33708;49.466;11.176;2023-02-28T08:38:13;20.97;;;10.23;;
4698;SDS011;33708;49.466;11.176;2023-02-28T08:40:38;20.17;;;10.20;;
4698;SDS011;33708;49.466;11.176;2023-02-28T08:43:05;19.60;;;9.47;;
4698;SDS011;33708;49.466;11.176;2023-02-28T08:45:30;18.43;;;9.43;;
4698;SDS011;33708;49.466;11.176;2023-02-28T08:47:59;18.87;;;10.00;;
4698;SDS011;33708;49.466;11.176;2023-02-28T08:50:25;19.40;;;9.80;;
4698;SDS011;33708;49.466;11.176;2023-02-28T08:52:50;20.70;;;11.50;;
4698;SDS011;33708;49.466;11.176;2023-02-28T08:55:16;20.10;;;10.40;;
4698;SDS011;33708;49.466;11.176;2023-02-28T08:57:41;20.00;;;9.90;;
4698;SDS011;33708;49.466;11.176;2023-02-28T09:00:07;20.97;;;10.67;;
4698;SDS011;33708;49.466;11.176;2023-02-28T09:02:33;18.83;;;10.03;;
4698;SDS011;33708;49.466;11.176;2023-02-28T09:04:59;18.97;;;9.17;;
4698;SDS011;33708;49.466;11.176;2023-02-28T09:07:25;19.50;;;9.50;;
4698;SDS011;33708;49.466;11.176;2023-02-28T09:09:50;17.80;;;9.67;;
4698;SDS011;33708;49.466;11.176;2023-02-28T09:12:25;21.53;;;10.00;;
4698;SDS011;33708;49.466;11.176;2023-02-28T09:14:52;20.10;;;9.93;;
4698;SDS011;33708;49.466;11.176;2023-02-28T09:17:18;17.60;;;9.87;;
4698;SDS011;33708;49.466;11.176;2023-02-28T09:19:44;21.20;;;10.00;;
4698;SDS011;33708;49.466;11.176;2023-02-28T09:22:12;20.20;;;9.97;;
4698;SDS011;33708;49.466;11.176;2023-02-28T09:24:38;22.20;;;10.30;;
4698;SDS011;33708;49.466;11.176;2023-02-28T09:27:03;20.67;;;9.80;;
4698;SDS011;33708;49.466;11.176;2023-02-28T09:29:30;19.73;;;10.20;;
4698;SDS011;33708;49.466;11.176;2023-02-28T09:31:56;17.67;;;8.77;;
4698;SDS011;33708;49.466;11.176;2023-02-28T09:34:23;18.87;;;9.60;;
4698;SDS011;33708;49.466;11.176;2023-02-28T09:36:49;20.93;;;10.00;;
4698;SDS011;33708;49.466;11.176;2023-02-28T09:39:18;20.17;;;9.77;;
4698;SDS011;33708;49.466;11.176;2023-02-28T09:41:44;20.03;;;9.60;;
4698;SDS011;33708;49.466;11.176;2023-02-28T09:47:11;23.87;;;10.20;;
4698;SDS011;33708;49.466;11.176;2023-02-28T09:49:40;18.70;;;9.10;;
4698;SDS011;33708;49.466;11.176;2023-02-28T09:52:13;14.03;;;7.53;;
4698;SDS011;33708;49.466;11.176;2023-02-28T09:54:45;17.03;;;8.20;;
4698;SDS011;33708;49.466;11.176;2023-02-28T09:59:43;19.87;;;9.07;;
4698;SDS011;33708;49.466;11.176;2023-02-28T10:05:30;17.10;;;8.03;;
4698;SDS011;33708;49.466;11.176;2023-02-28T10:08:13;15.90;;;8.20;;
4698;SDS011;33708;49.466;11.176;2023-02-28T10:10:46;19.83;;;8.83;;
4698;SDS011;33708;49.466;11.176;2023-02-28T10:21:59;18.20;;;9.00;;
4698;SDS011;33708;49.466;11.176;2023-02-28T10:24:47;19.67;;;8.47;;
4698;SDS011;33708;49.466;11.176;2023-02-28T10:27:16;17.80;;;8.90;;
4698;SDS011;33708;49.466;11.176;2023-02-28T10:29:45;21.47;;;9.17;;
4698;SDS011;33708;49.466;11.176;2023-02-28T10:32:20;17.17;;;7.80;;
4698;SDS011;33708;49.466;11.176;2023-02-28T10:37:37;19.00;;;7.50;;
4698;SDS011;33708;49.466;11.176;2023-02-28T10:40:25;21.17;;;8.13;;
4698;SDS011;33708;49.466;11.176;2023-02-28T10:42:56;16.63;;;8.60;;
4698;SDS011;33708;49.466;11.176;2023-02-28T10:45:38;18.17;;;8.83;;
4698;SDS011;33708;49.466;11.176;2023-02-28T10:48:05;19.50;;;7.87;;
4698;SDS011;33708;49.466;11.176;2023-02-28T10:50:52;18.40;;;9.20;;
4698;SDS011;33708;49.466;11.176;2023-02-28T11:01:14;17.93;;;8.33;;
4698;SDS011;33708;49.466;11.176;2023-02-28T11:03:42;19.97;;;9.30;;
4698;SDS011;33708;49.466;11.176;2023-02-28T11:06:13;19.33;;;8.07;;
4698;SDS011;33708;49.466;11.176;2023-02-28T11:08:54;17.33;;;8.43;;
4698;SDS011;33708;49.466;11.176;2023-02-28T11:11:22;22.20;;;6.60;;
4698;SDS011;33708;49.466;11.176;2023-02-28T11:13:54;18.90;;;8.43;;
4698;SDS011;33708;49.466;11.176;2023-02-28T11:16:21;18.80;;;8.70;;
4698;SDS011;33708;49.466;11.176;2023-02-28T11:19:00;24.37;;;9.23;;
4698;SDS011;33708;49.466;11.176;2023-02-28T11:24:28;17.10;;;8.30;;
4698;SDS011;33708;49.466;11.176;2023-02-28T11:27:02;19.87;;;9.57;;
4698;SDS011;33708;49.466;11.176;2023-02-28T11:29:39;16.87;;;8.57;;
4698;SDS011;33708;49.466;11.176;2023-02-28T11:32:22;21.77;;;9.13;;
4698;SDS011;33708;49.466;11.176;2023-02-28T11:38:07;20.63;;;8.47;;
4698;SDS011;33708;49.466;11.176;2023-02-28T11:46:30;18.27;;;7.73;;
4698;SDS011;33708;49.466;11.176;2023-02-28T11:49:20;19.87;;;8.30;;
4698;SDS011;33708;49.466;11.176;2023-02-28T11:52:01;18.33;;;8.50;;
4698;SDS011;33708;49.466;11.176;2023-02-28T12:03:12;17.10;;;8.40;;
4698;SDS011;33708;49.466;11.176;2023-02-28T12:08:46;19.70;;;9.13;;
4698;SDS011;33708;49.466;11.176;2023-02-28T12:14:09;19.70;;;8.90;;
4698;SDS011;33708;49.466;11.176;2023-02-28T12:17:12;20.17;;;9.50;;
4698;SDS011;33708;49.466;11.176;2023-02-28T12:20:02;15.90;;;8.97;;
4698;SDS011;33708;49.466;11.176;2023-02-28T12:23:03;17.43;;;8.93;;
4698;SDS011;33708;49.466;11.176;2023-02-28T12:26:07;17.67;;;8.47;;
4698;SDS011;33708;49.466;11.176;2023-02-28T12:28:41;17.40;;;8.60;;
4698;SDS011;33708;49.466;11.176;2023-02-28T12:34:18;18.50;;;8.60;;
4698;SDS011;33708;49.466;11.176;2023-02-28T12:36:46;16.53;;;8.60;;
4698;SDS011;33708;49.466;11.176;2023-02-28T12:39:25;28.10;;;8.30;;
4698;SDS011;33708;49.466;11.176;2023-02-28T12:41:59;19.50;;;9.53;;
4698;SDS011;33708;49.466;11.176;2023-02-28T12:44:30;18.60;;;9.37;;
4698;SDS011;33708;49.466;11.176;2023-02-28T12:47:21;19.37;;;8.73;;
4698;SDS011;33708;49.466;11.176;2023-02-28T12:49:51;16.23;;;8.00;;
4698;SDS011;33708;49.466;11.176;2023-02-28T12:52:25;17.10;;;9.00;;
4698;SDS011;33708;49.466;11.176;2023-02-28T12:55:08;17.70;;;9.17;;
4698;SDS011;33708;49.466;11.176;2023-02-28T12:57:48;17.63;;;8.97;;
4698;SDS011;33708;49.466;11.176;2023-02-28T13:00:36;18.73;;;8.50;;
4698;SDS011;33708;49.466;11.176;2023-02-28T13:17:03;21.73;;;9.43;;
4698;SDS011;33708;49.466;11.176;2023-02-28T13:22:36;27.40;;;10.03;;
4698;SDS011;33708;49.466;11.176;2023-02-28T13:28:12;19.97;;;10.33;;
4698;SDS011;33708;49.466;11.176;2023-02-28T13:31:00;20.17;;;10.10;;
4698;SDS011;33708;49.466;11.176;2023-02-28T13:38:39;18.50;;;9.30;;
4698;SDS011;33708;49.466;11.176;2023-02-28T13:44:01;21.83;;;10.10;;
4698;SDS011;33708;49.466;11.176;2023-02-28T13:46:33;20.63;;;9.67;;
4698;SDS011;33708;49.466;11.176;2023-02-28T13:51:51;19.57;;;9.67;;
4698;SDS011;33708;49.466;11.176;2023-02-28T14:03:31;21.17;;;11.07;;
4698;SDS011;33708;49.466;11.176;2023-02-28T14:06:45;21.07;;;10.83;;
4698;SDS011;33708;49.466;11.176;2023-02-28T14:11:40;19.23;;;9.20;;
4698;SDS011;33708;49.466;11.176;2023-02-28T14:14:08;17.50;;;9.30;;
4698;SDS011;33708;49.466;11.176;2023-02-28T14:16:54;23.17;;;11.90;;
4698;SDS011;33708;49.466;11.176;2023-02-28T14:19:29;19.40;;;9.70;;
4698;SDS011;33708;49.466;11.176;2023-02-28T14:27:48;22.03;;;11.73;;
4698;SDS011;33708;49.466;11.176;2023-02-28T14:36:30;21.03;;;10.43;;
4698;SDS011;33708;49.466;11.176;2023-02-28T14:38:56;20.70;;;10.77;;
4698;SDS011;33708;49.466;11.176;2023-02-28T14:41:32;24.37;;;11.90;;
4698;SDS011;33708;49.466;11.176;2023-02-28T14:44:14;23.37;;;10.30;;
4698;SDS011;33708;49.466;11.176;2023-02-28T14:46:42;20.50;;;10.97;;
4698;SDS011;33708;49.466;11.176;2023-02-28T14:49:12;19.17;;;10.40;;
4698;SDS011;33708;49.466;11.176;2023-02-28T14:54:51;23.53;;;10.77;;
4698;SDS011;33708;49.466;11.176;2023-02-28T14:57:50;19.20;;;10.40;;
4698;SDS011;33708;49.466;11.176;2023-02-28T15:00:25;21.30;;;11.50;;
4698;SDS011;33708;49.466;11.176;2023-02-28T15:02:58;21.77;;;10.63;;
4698;SDS011;33708;49.466;11.176;2023-02-28T15:05:32;24.67;;;11.40;;
4698;SDS011;33708;49.466;11.176;2023-02-28T15:08:23;18.93;;;9.60;;
4698;SDS011;33708;49.466;11.176;2023-02-28T15:10:58;19.87;;;10.87;;
4698;SDS011;33708;49.466;11.176;2023-02-28T15:13:46;26.23;;;11.70;;
4698;SDS011;33708;49.466;11.176;2023-02-28T15:16:22;24.70;;;13.00;;
4698;SDS011;33708;49.466;11.176;2023-02-28T15:21:36;24.20;;;13.37;;
4698;SDS011;33708;49.466;11.176;2023-02-28T15:27:02;18.67;;;9.50;;
4698;SDS011;33708;49.466;11.176;2023-02-28T15:29:45;22.00;;;10.03;;
4698;SDS011;33708;49.466;11.176;2023-02-28T15:34:59;19.90;;;10.90;;
4698;SDS011;33708;49.466;11.176;2023-02-28T15:38:03;27.87;;;11.30;;
4698;SDS011;33708;49.466;11.176;2023-02-28T15:40:43;21.57;;;11.77;;
4698;SDS011;33708;49.466;11.176;2023-02-28T15:43:16;22.93;;;10.37;;
4698;SDS011;33708;49.466;11.176;2023-02-28T15:45:48;22.57;;;10.53;;
4698;SDS011;33708;49.466;11.176;2023-02-28T15:50:54;20.77;;;9.90;;
4698;SDS011;33708;49.466;11.176;2023-02-28T15:53:32;24.57;;;11.70;;
4698;SDS011;33708;49.466;11.176;2023-02-28T15:56:06;23.87;;;11.60;;
4698;SDS011;33708;49.466;11.176;2023-02-28T15:58:50;21.60;;;10.40;;
4698;SDS011;33708;49.466;11.176;2023-02-28T16:01:44;21.00;;;10.83;;
4698;SDS011;33708;49.466;11.176;2023-02-28T16:04:17;22.13;;;11.23;;
4698;SDS011;33708;49.466;11.176;2023-02-28T16:09:20;24.20;;;10.47;;
4698;SDS011;33708;49.466;11.176;2023-02-28T16:11:47;21.37;;;10.20;;
4698;SDS011;33708;49.466;11.176;2023-02-28T16:14:24;22.40;;;11.30;;
4698;SDS011;33708;49.466;11.176;2023-02-28T16:16:56;18.13;;;9.30;;
4698;SDS011;33708;49.466;11.176;2023-02-28T16:19:33;23.40;;;11.77;;
4698;SDS011;33708;49.466;11.176;2023-02-28T16:22:02;22.80;;;10.57;;
4698;SDS011;33708;49.466;11.176;2023-02-28T16:24:35;22.57;;;10.83;;
4698;SDS011;33708;49.466;11.176;2023-02-28T16:27:27;26.20;;;10.80;;
4698;SDS011;33708;49.466;11.176;2023-02-28T16:30:07;22.70;;;10.83;;
4698;SDS011;33708;49.466;11.176;2023-02-28T16:32:50;28.80;;;12.17;;
4698;SDS011;33708;49.466;11.176;2023-02-28T16:35:20;34.30;;;12.70;;
4698;SDS011;33708;49.466;11.176;2023-02-28T16:37:54;23.17;;;12.30;;
4698;SDS011;33708;49.466;11.176;2023-02-28T16:40:25;28.20;;;13.30;;
4698;SDS011;33708;49.466;11.176;2023-02-28T16:42:56;32.93;;;13.20;;
4698;SDS011;33708;49.466;11.176;2023-02-28T16:45:25;26.00;;;13.07;;
4698;SDS011;33708;49.466;11.176;2023-02-28T16:47:52;23.67;;;11.90;;
4698;SDS011;33708;49.466;11.176;2023-02-28T16:50:23;22.63;;;11.60;;
4698;SDS011;33708;49.466;11.176;2023-02-28T16:52:50;24.23;;;13.83;;
4698;SDS011;33708;49.466;11.176;2023-02-28T16:55:20;26.00;;;13.43;;
4698;SDS011;33708;49.466;11.176;2023-02-28T16:57:52;24.30;;;12.30;;
4698;SDS011;33708;49.466;11.176;2023-02-28T17:00:19;25.90;;;12.80;;
4698;SDS011;33708;49.466;11.176;2023-02-28T17:03:33;25.83;;;12.70;;
4698;SDS011;33708;49.466;11.176;2023-02-28T17:06:34;26.33;;;12.40;;
4698;SDS011;33708;49.466;11.176;2023-02-28T17:09:02;25.20;;;13.23;;
4698;SDS011;33708;49.466;11.176;2023-02-28T17:11:34;25.47;;;12.50;;
4698;SDS011;33708;49.466;11.176;2023-02-28T17:13:59;33.30;;;14.60;;
4698;SDS011;33708;49.466;11.176;2023-02-28T17:16:29;31.20;;;15.33;;
4698;SDS011;33708;49.466;11.176;2023-02-28T17:18:59;24.03;;;12.33;;
4698;SDS011;33708;49.466;11.176;2023-02-28T17:21:30;28.63;;;15.30;;
4698;SDS011;33708;49.466;11.176;2023-02-28T17:23:58;41.50;;;17.50;;
4698;SDS011;33708;49.466;11.176;2023-02-28T17:26:24;34.93;;;16.90;;
4698;SDS011;33708;49.466;11.176;2023-02-28T17:28:51;28.20;;;14.43;;
4698;SDS011;33708;49.466;11.176;2023-02-28T17:31:22;30.67;;;12.80;;
4698;SDS011;33708;49.466;11.176;2023-02-28T17:33:49;31.70;;;12.30;;
4698;SDS011;33708;49.466;11.176;2023-02-28T17:36:16;30.63;;;16.50;;